Time;durP1;ratioP1;P1;durP2;ratioP2;P2;SDS_P1;SDS_P2;PMS_P1;PMS_P2;Temp;Humidity;BMP_temperature;BMP_pressure;BME280_temperature;BME280_humidity;BME280_pressure;Samples;Min_cycle;Max_cycle;Signal;HPM_P1;HPM_P2
2022/04/17 00:01:29;;;;;;;;;13.75;13.00;;;;;;;;5059843;28;45576;-71
2022/04/17 00:03:54;;;;;;;;;14.50;12.50;;;;;;;;5059719;28;45332;-71
2022/04/17 00:06:20;;;;;;;;;19.75;15.75;;;;;;;;5059086;28;46147;-71
2022/04/17 00:08:45;;;;;;;;;12.75;12.50;;;;;;;;5058839;28;45366;-71
2022/04/17 00:11:10;;;;;;;;;18.00;17.00;;;;;;;;5059400;28;45242;-71
2022/04/17 00:13:36;;;;;;;;;17.25;15.25;;;;;;;;5059405;28;45452;-71
2022/04/17 00:16:01;;;;;;;;;18.75;16.50;;;;;;;;5059277;28;46186;-71
2022/04/17 00:18:27;;;;;;;;;16.50;14.75;;;;;;;;5059040;28;45268;-71
2022/04/17 00:20:52;;;;;;;;;16.75;15.00;;;;;;;;5059002;28;45368;-71
2022/04/17 00:23:18;;;;;;;;;20.00;15.00;;;;;;;;5059153;28;45202;-71
2022/04/17 00:25:43;;;;;;;;;13.50;11.75;;;;;;;;5058935;28;46210;-71
2022/04/17 00:28:10;;;;;;;;;18.00;16.25;;;;;;;;5057705;28;45537;-70
2022/04/17 00:30:35;;;;;;;;;15.00;14.25;;;;;;;;5058919;28;45492;-68
2022/04/17 00:33:00;;;;;;;;;19.50;16.75;;;;;;;;5059170;28;45463;-67
2022/04/17 00:35:26;;;;;;;;;17.25;15.75;;;;;;;;5057338;28;46840;-67
2022/04/17 00:37:51;;;;;;;;;13.75;13.75;;;;;;;;5058916;28;45392;-67
2022/04/17 00:40:17;;;;;;;;;15.25;14.75;;;;;;;;5059096;28;45501;-67
2022/04/17 00:42:42;;;;;;;;;15.25;14.25;;;;;;;;5059164;28;45389;-67
2022/04/17 00:45:08;;;;;;;;;17.50;14.00;;;;;;;;5058723;28;46126;-68
2022/04/17 00:47:33;;;;;;;;;16.75;15.00;;;;;;;;5057723;28;45410;-71
2022/04/17 00:49:58;;;;;;;;;17.75;16.50;;;;;;;;5058808;28;45472;-67
2022/04/17 00:52:24;;;;;;;;;16.00;13.00;;;;;;;;5058841;28;45236;-71
2022/04/17 00:54:50;;;;;;;;;22.50;18.75;;;;;;;;5058468;28;45476;-71
2022/04/17 00:57:16;;;;;;;;;16.75;16.25;;;;;;;;5058612;28;45432;-68
2022/04/17 00:59:42;;;;;;;;;16.50;15.25;;;;;;;;5058511;28;45429;-67
2022/04/17 01:02:08;;;;;;;;;19.25;14.75;;;;;;;;5058862;28;45298;-67
2022/04/17 01:04:33;;;;;;;;;15.00;13.50;;;;;;;;5058601;28;46196;-67
2022/04/17 01:06:58;;;;;;;;;19.00;16.00;;;;;;;;5058513;28;45285;-67
2022/04/17 01:09:24;;;;;;;;;19.75;16.50;;;;;;;;5058434;28;45315;-67
2022/04/17 01:11:50;;;;;;;;;15.50;13.25;;;;;;;;5058607;28;45337;-67
2022/04/17 01:14:15;;;;;;;;;19.00;18.00;;;;;;;;5058214;28;46024;-68
2022/04/17 01:16:41;;;;;;;;;16.00;15.00;;;;;;;;5058011;28;45479;-68
2022/04/17 01:19:13;;;;;;;;;17.50;16.00;;;;;;;;5058383;28;45464;-68
2022/04/17 01:21:41;;;;;;;;;12.00;11.25;;;;;;;;5057518;28;45460;-68
2022/04/17 01:26:57;;;;;;;;;16.50;14.50;;;;;;;;5057835;28;45509;-67
2022/04/17 01:29:33;;;;;;;;;11.50;11.00;;;;;;;;5057848;28;45227;-68
2022/04/17 01:31:59;;;;;;;;;16.75;13.00;;;;;;;;5056868;28;45502;-67
2022/04/17 01:34:24;;;;;;;;;15.50;13.00;;;;;;;;5057756;28;46110;-68
2022/04/17 01:36:50;;;;;;;;;13.25;12.50;;;;;;;;5057771;28;45414;-68
2022/04/17 01:39:16;;;;;;;;;15.75;13.25;;;;;;;;5058040;28;45472;-68
2022/04/17 01:41:42;;;;;;;;;13.50;12.75;;;;;;;;5058145;28;45515;-67
2022/04/17 01:44:07;;;;;;;;;17.25;14.00;;;;;;;;5057822;28;46138;-68
2022/04/17 01:46:33;;;;;;;;;14.25;13.00;;;;;;;;5057836;28;45548;-68
2022/04/17 01:48:59;;;;;;;;;20.00;16.50;;;;;;;;5056630;28;45587;-68
2022/04/17 01:51:24;;;;;;;;;22.75;18.00;;;;;;;;5057817;28;45338;-67
2022/04/17 01:53:50;;;;;;;;;20.50;17.50;;;;;;;;5057524;28;46272;-67
2022/04/17 01:56:15;;;;;;;;;16.75;14.50;;;;;;;;5057478;28;45289;-67
2022/04/17 01:58:40;;;;;;;;;14.00;12.50;;;;;;;;5057749;28;45350;-68
2022/04/17 02:01:06;;;;;;;;;16.25;14.50;;;;;;;;5058113;28;45437;-68
2022/04/17 02:03:31;;;;;;;;;19.25;14.75;;;;;;;;5057282;28;45485;-67
2022/04/17 02:05:57;;;;;;;;;18.00;15.00;;;;;;;;5057385;28;45468;-67
2022/04/17 02:08:22;;;;;;;;;18.00;15.50;;;;;;;;5057462;28;45207;-68
2022/04/17 02:10:48;;;;;;;;;15.75;11.75;;;;;;;;5057849;28;45409;-70
2022/04/17 02:13:14;;;;;;;;;15.25;13.75;;;;;;;;5057233;28;46059;-67
2022/04/17 02:15:39;;;;;;;;;16.00;13.00;;;;;;;;5057698;28;45361;-67
2022/04/17 02:18:05;;;;;;;;;11.75;11.75;;;;;;;;5057631;28;45364;-71
2022/04/17 02:20:31;;;;;;;;;15.50;13.50;;;;;;;;5057682;28;45449;-71
2022/04/17 02:22:56;;;;;;;;;15.00;12.25;;;;;;;;5057212;28;46721;-71
2022/04/17 02:25:21;;;;;;;;;13.50;12.25;;;;;;;;5055831;28;45453;-71
2022/04/17 02:27:47;;;;;;;;;14.00;12.75;;;;;;;;5057222;28;45297;-70
2022/04/17 02:30:12;;;;;;;;;11.75;11.50;;;;;;;;5057187;28;45352;-70
2022/04/17 02:32:37;;;;;;;;;12.75;11.50;;;;;;;;5056962;28;45321;-71
2022/04/17 02:35:03;;;;;;;;;16.25;12.25;;;;;;;;5057070;28;45363;-71
2022/04/17 02:37:28;;;;;;;;;12.75;12.25;;;;;;;;5057251;28;45432;-71
2022/04/17 02:39:54;;;;;;;;;15.00;12.00;;;;;;;;5057406;28;45464;-67
2022/04/17 02:42:19;;;;;;;;;12.00;11.00;;;;;;;;5056873;28;45368;-67
2022/04/17 02:44:44;;;;;;;;;12.25;10.50;;;;;;;;5056930;28;45365;-67
2022/04/17 02:49:54;;;;;;;;;15.00;12.75;;;;;;;;5057236;28;45418;-67
2022/04/17 02:52:20;;;;;;;;;11.25;10.50;;;;;;;;5056520;28;45492;-67
2022/04/17 02:54:45;;;;;;;;;12.75;11.25;;;;;;;;5056628;28;45518;-68
2022/04/17 02:57:11;;;;;;;;;12.00;11.50;;;;;;;;5057258;28;45580;-67
2022/04/17 02:59:36;;;;;;;;;11.75;10.00;;;;;;;;5057034;28;45541;-67
2022/04/17 03:07:32;;;;;;;;;11.75;11.25;;;;;;;;5056473;28;45504;-71
2022/04/17 03:09:57;;;;;;;;;11.50;10.75;;;;;;;;5056738;28;45415;-71
2022/04/17 03:12:23;;;;;;;;;12.00;11.25;;;;;;;;5056113;28;46177;-68
2022/04/17 03:14:48;;;;;;;;;11.00;10.50;;;;;;;;5056621;28;45488;-67
2022/04/17 03:17:14;;;;;;;;;14.00;11.00;;;;;;;;5056754;28;45164;-67
2022/04/17 03:19:40;;;;;;;;;15.00;12.00;;;;;;;;5057180;28;45274;-68
2022/04/17 03:22:05;;;;;;;;;13.25;10.75;;;;;;;;5056397;28;45900;-67
2022/04/17 03:24:31;;;;;;;;;13.00;12.75;;;;;;;;5056555;28;45256;-69
2022/04/17 03:26:57;;;;;;;;;10.75;10.75;;;;;;;;5056568;28;45306;-67
2022/04/17 03:29:22;;;;;;;;;14.00;12.50;;;;;;;;5056606;28;45310;-70
2022/04/17 03:31:48;;;;;;;;;13.00;10.50;;;;;;;;5054874;28;45312;-68
2022/04/17 03:34:14;;;;;;;;;16.00;15.25;;;;;;;;5055317;28;45339;-68
2022/04/17 03:36:39;;;;;;;;;12.00;11.75;;;;;;;;5056536;28;45733;-67
2022/04/17 03:39:05;;;;;;;;;11.00;10.75;;;;;;;;5056522;28;45328;-67
2022/04/17 03:41:31;;;;;;;;;10.50;10.25;;;;;;;;5056207;28;45968;-67
2022/04/17 03:43:56;;;;;;;;;6.75;6.75;;;;;;;;5057758;28;45537;-69
2022/04/17 03:46:22;;;;;;;;;11.00;10.00;;;;;;;;5059801;28;45556;-67
2022/04/17 03:48:47;;;;;;;;;10.50;10.00;;;;;;;;5059986;28;45346;-71
2022/04/17 03:51:13;;;;;;;;;13.00;11.00;;;;;;;;5059645;28;45575;-71
2022/04/17 03:53:39;;;;;;;;;18.75;16.00;;;;;;;;5059462;28;45276;-71
2022/04/17 03:56:04;;;;;;;;;10.75;10.50;;;;;;;;5059654;28;45489;-71
2022/04/17 03:58:29;;;;;;;;;12.00;10.50;;;;;;;;5058407;28;45461;-71
2022/04/17 04:00:55;;;;;;;;;10.50;10.50;;;;;;;;5059261;28;45962;-71
2022/04/17 04:03:21;;;;;;;;;11.00;10.50;;;;;;;;5059353;28;45334;-68
2022/04/17 04:05:47;;;;;;;;;10.25;9.50;;;;;;;;5059523;28;45296;-67
2022/04/17 04:08:12;;;;;;;;;12.50;12.00;;;;;;;;5059803;28;45595;-67
2022/04/17 04:10:38;;;;;;;;;11.75;10.25;;;;;;;;5059157;28;45442;-67
2022/04/17 04:13:04;;;;;;;;;13.25;11.50;;;;;;;;5059031;28;45457;-67
2022/04/17 04:15:29;;;;;;;;;11.75;10.00;;;;;;;;5059443;28;45315;-67
2022/04/17 04:17:54;;;;;;;;;10.00;10.00;;;;;;;;5059554;28;45520;-71
2022/04/17 04:20:20;;;;;;;;;10.25;10.25;;;;;;;;5059047;28;46138;-71
2022/04/17 04:22:45;;;;;;;;;14.25;11.75;;;;;;;;5059566;28;45303;-71
2022/04/17 04:25:10;;;;;;;;;9.75;9.75;;;;;;;;5058008;28;45553;-71
2022/04/17 04:30:20;;;;;;;;;11.25;10.00;;;;;;;;5058757;28;45841;-71
2022/04/17 04:32:56;;;;;;;;;11.50;10.25;;;;;;;;5058894;28;45398;-68
2022/04/17 04:35:21;;;;;;;;;11.25;9.50;;;;;;;;5059060;28;45366;-67
2022/04/17 04:37:48;;;;;;;;;15.00;13.00;;;;;;;;5059409;28;45278;-67
2022/04/17 04:40:13;;;;;;;;;10.00;9.75;;;;;;;;5058978;28;46619;-67
2022/04/17 04:42:39;;;;;;;;;12.25;9.50;;;;;;;;5058660;28;45318;-67
2022/04/17 04:47:48;;;;;;;;;13.75;12.75;;;;;;;;5059386;28;45286;-68
2022/04/17 04:50:13;;;;;;;;;12.00;12.00;;;;;;;;5058895;28;45957;-67
2022/04/17 04:52:39;;;;;;;;;14.75;11.00;;;;;;;;5058815;28;45825;-71
2022/04/17 04:55:04;;;;;;;;;10.00;9.00;;;;;;;;5057252;28;45235;-70
2022/04/17 04:57:30;;;;;;;;;12.00;11.00;;;;;;;;5059036;28;45242;-67
2022/04/17 04:59:55;;;;;;;;;9.00;8.00;;;;;;;;5058564;28;45670;-67
2022/04/17 05:02:21;;;;;;;;;11.50;9.00;;;;;;;;5058472;28;45369;-67
2022/04/17 05:04:46;;;;;;;;;12.00;12.00;;;;;;;;5059063;28;45672;-67
2022/04/17 05:07:11;;;;;;;;;9.00;8.25;;;;;;;;5058682;28;45361;-67
2022/04/17 05:09:37;;;;;;;;;11.25;9.25;;;;;;;;5056901;28;45490;-67
2022/04/17 05:12:03;;;;;;;;;9.75;9.00;;;;;;;;5058167;28;45319;-70
2022/04/17 05:14:29;;;;;;;;;12.75;10.25;;;;;;;;5058449;28;45387;-67
2022/04/17 05:16:54;;;;;;;;;9.00;8.00;;;;;;;;5058667;28;45381;-70
2022/04/17 05:19:20;;;;;;;;;9.50;9.00;;;;;;;;5058472;28;46018;-67
2022/04/17 05:21:47;;;;;;;;;12.00;11.25;;;;;;;;5058458;28;45529;-68
2022/04/17 05:24:16;;;;;;;;;7.75;7.75;;;;;;;;5058213;28;45277;-67
2022/04/17 05:26:41;;;;;;;;;10.00;8.50;;;;;;;;5058314;28;45388;-68
2022/04/17 05:29:06;;;;;;;;;8.50;8.50;;;;;;;;5056489;28;45479;-68
2022/04/17 05:31:32;;;;;;;;;8.50;8.50;;;;;;;;5057884;28;45524;-67
2022/04/17 05:33:57;;;;;;;;;7.75;7.75;;;;;;;;5057949;28;45478;-67
2022/04/17 05:36:23;;;;;;;;;12.75;10.25;;;;;;;;5056768;28;45491;-67
2022/04/17 05:38:48;;;;;;;;;14.25;13.75;;;;;;;;5058202;28;45396;-68
2022/04/17 05:41:13;;;;;;;;;9.00;8.50;;;;;;;;5057828;28;45608;-68
2022/04/17 05:43:39;;;;;;;;;14.00;13.00;;;;;;;;5057880;28;45453;-67
2022/04/17 05:46:04;;;;;;;;;18.75;14.75;;;;;;;;5058123;28;45440;-67
2022/04/17 05:48:30;;;;;;;;;18.50;16.75;;;;;;;;5057778;28;46621;-67
2022/04/17 05:50:55;;;;;;;;;9.00;8.75;;;;;;;;5057690;28;45420;-68
2022/04/17 05:53:21;;;;;;;;;11.75;10.25;;;;;;;;5058041;28;45501;-67
2022/04/17 05:55:46;;;;;;;;;21.00;15.50;;;;;;;;5057795;28;45720;-67
2022/04/17 05:58:12;;;;;;;;;51.00;41.25;;;;;;;;5057165;28;45508;-68
2022/04/17 06:00:41;;;;;;;;;22.25;20.75;;;;;;;;5057447;28;45421;-67
2022/04/17 06:03:07;;;;;;;;;20.00;18.25;;;;;;;;5057616;28;45320;-68
2022/04/17 06:05:33;;;;;;;;;21.00;16.00;;;;;;;;5057610;28;45358;-68
2022/04/17 06:07:58;;;;;;;;;13.50;11.50;;;;;;;;5057303;28;45343;-68
2022/04/17 06:10:23;;;;;;;;;18.50;17.25;;;;;;;;5057444;28;45386;-68
2022/04/17 06:12:49;;;;;;;;;17.50;15.25;;;;;;;;5057811;28;45480;-68
2022/04/17 06:15:14;;;;;;;;;15.25;15.00;;;;;;;;5057546;28;45223;-68
2022/04/17 06:17:43;;;;;;;;;26.50;25.50;;;;;;;;5057113;28;46142;-67
2022/04/17 06:20:09;;;;;;;;;23.00;19.25;;;;;;;;5057195;28;45446;-67
2022/04/17 06:22:35;;;;;;;;;13.50;13.50;;;;;;;;5057190;28;45269;-67
2022/04/17 06:25:19;;;;;;;;;11.00;11.00;;;;;;;;5056146;28;45578;-67
2022/04/17 06:27:45;;;;;;;;;8.25;7.00;;;;;;;;5057170;28;45456;-67
2022/04/17 06:30:11;;;;;;;;;18.50;18.25;;;;;;;;5057002;28;45488;-68
2022/04/17 06:32:36;;;;;;;;;16.50;16.00;;;;;;;;5057129;28;45417;-67
2022/04/17 06:35:02;;;;;;;;;14.00;14.00;;;;;;;;5057362;28;45348;-68
2022/04/17 06:37:27;;;;;;;;;15.00;15.00;;;;;;;;5057031;28;45466;-68
2022/04/17 06:39:54;;;;;;;;;14.50;12.50;;;;;;;;5055965;28;45347;-67
2022/04/17 06:42:20;;;;;;;;;13.75;13.00;;;;;;;;5055591;28;45240;-68
2022/04/17 06:44:45;;;;;;;;;12.00;11.50;;;;;;;;5057293;28;45473;-68
2022/04/17 06:47:10;;;;;;;;;14.25;14.00;;;;;;;;5055371;28;45461;-68
2022/04/17 06:49:36;;;;;;;;;10.00;9.67;;;;;;;;5056828;28;45331;-71
2022/04/17 06:52:01;;;;;;;;;11.50;11.25;;;;;;;;5055657;28;45263;-68
2022/04/17 06:54:27;;;;;;;;;12.33;12.00;;;;;;;;5055639;28;45447;-69
2022/04/17 06:56:52;;;;;;;;;10.33;10.00;;;;;;;;5056972;28;46605;-68
2022/04/17 06:59:17;;;;;;;;;12.00;11.33;;;;;;;;5056419;28;45497;-68
2022/04/17 07:01:43;;;;;;;;;17.00;16.33;;;;;;;;5056878;28;45375;-71
2022/04/17 07:04:08;;;;;;;;;17.67;15.33;;;;;;;;5056842;28;45504;-68
2022/04/17 07:06:34;;;;;;;;;10.00;10.00;;;;;;;;5056615;28;45780;-71
2022/04/17 07:08:59;;;;;;;;;12.00;11.00;;;;;;;;5056709;28;45318;-69
2022/04/17 07:11:25;;;;;;;;;11.67;10.67;;;;;;;;5056991;28;45444;-68
2022/04/17 07:13:50;;;;;;;;;12.33;11.67;;;;;;;;5056768;28;45310;-71
2022/04/17 07:16:16;;;;;;;;;12.33;11.67;;;;;;;;5056336;28;45460;-69
2022/04/17 07:18:41;;;;;;;;;14.00;14.00;;;;;;;;5057701;28;45456;-69
2022/04/17 07:21:06;;;;;;;;;14.67;14.00;;;;;;;;5059998;28;45501;-71
2022/04/17 07:23:32;;;;;;;;;10.67;10.67;;;;;;;;5060146;28;45506;-69
2022/04/17 07:25:57;;;;;;;;;11.67;11.67;;;;;;;;5058758;28;45503;-71
2022/04/17 07:28:23;;;;;;;;;12.67;12.67;;;;;;;;5060299;28;45390;-69
2022/04/17 07:30:49;;;;;;;;;13.00;11.00;;;;;;;;5059719;28;45308;-71
2022/04/17 07:33:16;;;;;;;;;12.00;12.00;;;;;;;;5059775;28;45497;-69
2022/04/17 07:35:43;;;;;;;;;11.67;11.67;;;;;;;;5057366;28;46356;-71
2022/04/17 07:38:08;;;;;;;;;12.67;12.67;;;;;;;;5056449;28;45520;-70
2022/04/17 07:40:35;;;;;;;;;12.33;11.00;;;;;;;;5059082;28;45692;-71
2022/04/17 07:43:01;;;;;;;;;10.00;10.00;;;;;;;;5059977;28;45424;-71
2022/04/17 07:45:27;;;;;;;;;12.67;12.67;;;;;;;;5059699;28;46140;-69
2022/04/17 07:47:53;;;;;;;;;12.67;12.33;;;;;;;;5059394;28;45460;-66
2022/04/17 07:50:21;;;;;;;;;11.00;10.67;;;;;;;;5058201;28;45454;-67
2022/04/17 07:52:46;;;;;;;;;12.67;12.67;;;;;;;;5059805;28;45476;-71
2022/04/17 07:55:12;;;;;;;;;11.00;10.67;;;;;;;;5059376;28;45927;-71
2022/04/17 08:00:23;;;;;;;;;14.67;13.33;;;;;;;;5059333;28;45239;-71
2022/04/17 08:03:08;;;;;;;;;12.00;12.00;;;;;;;;5059437;28;45481;-72
2022/04/17 08:05:37;;;;;;;;;13.00;12.00;;;;;;;;5058765;28;45238;-71
2022/04/17 08:08:02;;;;;;;;;11.00;10.00;;;;;;;;5059248;28;45366;-71
2022/04/17 08:10:28;;;;;;;;;11.33;11.33;;;;;;;;5057905;28;45421;-71
2022/04/17 08:12:54;;;;;;;;;9.33;9.33;;;;;;;;5057694;28;45638;-71
2022/04/17 08:15:19;;;;;;;;;10.67;10.67;;;;;;;;5058663;28;45318;-71
2022/04/17 08:17:44;;;;;;;;;11.00;10.33;;;;;;;;5058224;28;45452;-71
2022/04/17 08:20:10;;;;;;;;;11.67;11.33;;;;;;;;5058064;28;45365;-71
2022/04/17 08:22:35;;;;;;;;;11.67;11.67;;;;;;;;5058632;28;45504;-70
2022/04/17 08:25:01;;;;;;;;;12.00;11.00;;;;;;;;5058714;28;45557;-71
2022/04/17 08:27:26;;;;;;;;;10.00;10.00;;;;;;;;5058610;28;45290;-71
2022/04/17 08:29:52;;;;;;;;;11.33;10.67;;;;;;;;5056925;28;45616;-72
2022/04/17 08:32:17;;;;;;;;;11.67;11.67;;;;;;;;5058682;28;45393;-71
2022/04/17 08:34:42;;;;;;;;;12.33;12.33;;;;;;;;5058491;28;46174;-72
2022/04/17 08:37:08;;;;;;;;;12.00;11.33;;;;;;;;5058473;28;45479;-71
2022/04/17 08:39:33;;;;;;;;;13.00;12.00;;;;;;;;5058342;28;45232;-71
2022/04/17 08:41:59;;;;;;;;;12.00;11.67;;;;;;;;5058879;28;45272;-71
2022/04/17 08:44:25;;;;;;;;;12.00;11.67;;;;;;;;5058172;28;45761;-71
2022/04/17 08:46:50;;;;;;;;;12.33;12.00;;;;;;;;5056881;28;45541;-71
2022/04/17 08:49:15;;;;;;;;;13.33;13.33;;;;;;;;5058093;28;45757;-71
2022/04/17 08:51:47;;;;;;;;;13.67;13.00;;;;;;;;5058351;28;45225;-70
2022/04/17 08:54:13;;;;;;;;;12.67;12.67;;;;;;;;5057954;28;46472;-69
2022/04/17 08:56:38;;;;;;;;;12.00;12.00;;;;;;;;5057370;28;45283;-70
2022/04/17 08:59:05;;;;;;;;;11.00;11.00;;;;;;;;5056506;28;45481;-70
2022/04/17 09:01:32;;;;;;;;;10.33;10.33;;;;;;;;5058279;28;45217;-70
2022/04/17 09:03:57;;;;;;;;;12.00;12.00;;;;;;;;5057363;28;45414;-70
2022/04/17 09:06:23;;;;;;;;;14.00;14.00;;;;;;;;5057774;28;45559;-70
2022/04/17 09:08:57;;;;;;;;;13.33;13.33;;;;;;;;5056454;28;45414;-70
2022/04/17 09:11:29;;;;;;;;;13.67;13.00;;;;;;;;5057848;28;45308;-70
2022/04/17 09:13:55;;;;;;;;;11.00;11.00;;;;;;;;5057064;28;45249;-70
2022/04/17 09:16:28;;;;;;;;;12.00;11.00;;;;;;;;5057218;28;45272;-70
2022/04/17 09:18:54;;;;;;;;;10.67;10.67;;;;;;;;5056014;28;45485;-70
2022/04/17 09:21:29;;;;;;;;;13.67;13.00;;;;;;;;5056987;28;45587;-68
2022/04/17 09:24:11;;;;;;;;;12.67;12.67;;;;;;;;5056930;28;45289;-70
2022/04/17 09:26:36;;;;;;;;;12.00;12.00;;;;;;;;5056656;28;45322;-70
2022/04/17 09:29:15;;;;;;;;;11.33;10.33;;;;;;;;5055249;28;45552;-70
2022/04/17 09:31:41;;;;;;;;;12.00;11.33;;;;;;;;5054768;28;45584;-70
2022/04/17 09:34:09;;;;;;;;;15.33;13.00;;;;;;;;5056034;28;45362;-70
2022/04/17 09:36:37;;;;;;;;;11.67;10.33;;;;;;;;5056797;28;45440;-69
2022/04/17 09:39:28;;;;;;;;;14.00;13.33;;;;;;;;5056888;28;45268;-69
2022/04/17 09:41:55;;;;;;;;;14.67;14.67;;;;;;;;5054375;28;45310;-70
2022/04/17 09:44:39;;;;;;;;;13.00;13.00;;;;;;;;5056446;28;45442;-70
2022/04/17 09:47:06;;;;;;;;;17.33;16.67;;;;;;;;5056471;28;45453;-69
2022/04/17 09:49:49;;;;;;;;;16.33;16.33;;;;;;;;5056501;28;45325;-70
2022/04/17 09:52:14;;;;;;;;;12.67;11.67;;;;;;;;5056231;28;45593;-70
2022/04/17 09:54:42;;;;;;;;;13.00;13.00;;;;;;;;5056162;28;46140;-70
2022/04/17 09:57:08;;;;;;;;;15.33;15.00;;;;;;;;5056155;28;45333;-69
2022/04/17 09:59:33;;;;;;;;;25.50;25.50;;;;;;;;5056001;28;45412;-69
2022/04/17 10:01:59;;;;;;;;;12.33;12.00;;;;;;;;5055499;28;45220;-69
2022/04/17 10:04:25;;;;;;;;;14.00;14.00;;;;;;;;5055311;28;45505;-69
2022/04/17 10:06:51;;;;;;;;;18.00;17.00;;;;;;;;5055862;28;45278;-68
2022/04/17 10:09:17;;;;;;;;;16.00;16.00;;;;;;;;5055625;28;45254;-69
2022/04/17 10:11:42;;;;;;;;;10.33;10.00;;;;;;;;5055710;28;45328;-70
2022/04/17 10:14:08;;;;;;;;;14.67;14.33;;;;;;;;5054385;28;47849;-69
2022/04/17 10:16:34;;;;;;;;;15.33;14.67;;;;;;;;5055033;28;45480;-70
2022/04/17 10:19:06;;;;;;;;;13.00;12.33;;;;;;;;5055154;28;45503;-70
2022/04/17 10:21:34;;;;;;;;;14.33;13.33;;;;;;;;5056601;28;45457;-69
2022/04/17 10:24:02;;;;;;;;;52.00;44.00;;;;;;;;5055504;28;46453;-69
2022/04/17 10:26:28;;;;;;;;;11.00;10.67;;;;;;;;5055428;28;45451;-71
2022/04/17 10:28:55;;;;;;;;;12.00;12.00;;;;;;;;5055993;28;45471;-70
2022/04/17 10:31:21;;;;;;;;;14.00;13.00;;;;;;;;5055445;28;45314;-69
2022/04/17 10:34:06;;;;;;;;;12.33;12.33;;;;;;;;5053448;28;45938;-69
2022/04/17 10:36:37;;;;;;;;;15.00;13.00;;;;;;;;5054913;28;45432;-69
2022/04/17 10:39:13;;;;;;;;;13.00;12.00;;;;;;;;5055070;28;45492;-70
2022/04/17 10:41:39;;;;;;;;;12.00;12.00;;;;;;;;5053488;28;45591;-70
2022/04/17 10:44:04;;;;;;;;;13.00;12.00;;;;;;;;5055540;28;45472;-70
2022/04/17 10:46:43;;;;;;;;;10.67;10.00;;;;;;;;5055543;28;45405;-70
2022/04/17 10:49:09;;;;;;;;;10.67;10.67;;;;;;;;5054946;28;45358;-69
2022/04/17 10:51:35;;;;;;;;;12.00;11.67;;;;;;;;5055735;28;45498;-70
2022/04/17 10:54:03;;;;;;;;;10.00;10.00;;;;;;;;5056973;28;45390;-69
2022/04/17 10:56:29;;;;;;;;;10.67;9.67;;;;;;;;5057471;28;45301;-70
2022/04/17 10:58:56;;;;;;;;;13.33;13.33;;;;;;;;5059307;28;45886;-70
2022/04/17 11:01:39;;;;;;;;;9.00;8.33;;;;;;;;5058547;28;45431;-69
2022/04/17 11:04:15;;;;;;;;;17.33;16.67;;;;;;;;5058499;28;45463;-69
2022/04/17 11:06:41;;;;;;;;;10.67;9.67;;;;;;;;5058801;28;45396;-69
2022/04/17 11:09:20;;;;;;;;;11.00;10.00;;;;;;;;5058962;28;45374;-70
2022/04/17 11:11:46;;;;;;;;;10.33;9.33;;;;;;;;5059429;28;45580;-69
2022/04/17 11:14:23;;;;;;;;;14.33;14.33;;;;;;;;5056994;28;46448;-69
2022/04/17 11:16:56;;;;;;;;;16.33;15.33;;;;;;;;5059026;28;45317;-69
2022/04/17 11:19:27;;;;;;;;;14.00;13.00;;;;;;;;5058747;28;45319;-68
2022/04/17 11:21:53;;;;;;;;;12.33;12.33;;;;;;;;5058293;28;45553;-69
2022/04/17 11:24:19;;;;;;;;;12.33;10.67;;;;;;;;5056659;28;46390;-68
2022/04/17 11:26:52;;;;;;;;;10.00;9.67;;;;;;;;5058218;28;45403;-69
2022/04/17 11:29:32;;;;;;;;;11.67;11.67;;;;;;;;5057292;28;45423;-69
2022/04/17 11:31:57;;;;;;;;;14.00;12.67;;;;;;;;5058699;28;45291;-68
2022/04/17 11:34:23;;;;;;;;;14.33;12.67;;;;;;;;5058359;28;46103;-70
2022/04/17 11:36:49;;;;;;;;;14.00;13.67;;;;;;;;5058472;28;45470;-69
2022/04/17 11:39:25;;;;;;;;;16.00;15.67;;;;;;;;5058442;28;45500;-70
2022/04/17 11:41:51;;;;;;;;;18.00;18.00;;;;;;;;5057058;28;45261;-68
2022/04/17 11:44:16;;;;;;;;;15.00;13.67;;;;;;;;5056241;28;46551;-69
2022/04/17 11:46:42;;;;;;;;;14.00;14.00;;;;;;;;5059040;28;45489;-69
2022/04/17 11:49:07;;;;;;;;;12.67;12.67;;;;;;;;5059035;28;45432;-70
2022/04/17 11:51:41;;;;;;;;;12.33;11.33;;;;;;;;5059058;28;45451;-69
2022/04/17 11:54:06;;;;;;;;;16.67;16.67;;;;;;;;5058242;28;45472;-69
2022/04/17 11:56:51;;;;;;;;;15.67;15.67;;;;;;;;5056747;28;45291;-70
2022/04/17 11:59:17;;;;;;;;;16.00;15.33;;;;;;;;5056888;28;45378;-70
2022/04/17 12:01:42;;;;;;;;;15.33;14.67;;;;;;;;5058288;28;45442;-69
2022/04/17 12:04:18;;;;;;;;;17.00;15.33;;;;;;;;5056838;28;46181;-69
2022/04/17 12:06:44;;;;;;;;;17.00;17.00;;;;;;;;5057173;28;45417;-69
2022/04/17 12:09:11;;;;;;;;;14.00;14.00;;;;;;;;5057584;28;45244;-70
2022/04/17 12:11:39;;;;;;;;;38.75;34.00;;;;;;;;5058235;28;45442;-67
2022/04/17 12:14:05;;;;;;;;;18.67;17.33;;;;;;;;5057708;28;45416;-70
2022/04/17 12:16:30;;;;;;;;;17.67;16.67;;;;;;;;5058532;28;45434;-69
2022/04/17 12:18:56;;;;;;;;;16.67;16.67;;;;;;;;5055921;28;45752;-69
2022/04/17 12:21:27;;;;;;;;;15.33;15.00;;;;;;;;5057854;28;45422;-69
2022/04/17 12:23:53;;;;;;;;;22.33;20.00;;;;;;;;5057442;28;46389;-68
2022/04/17 12:26:19;;;;;;;;;14.33;14.33;;;;;;;;5057683;28;45493;-67
2022/04/17 12:28:45;;;;;;;;;15.00;14.00;;;;;;;;5056990;28;45509;-70
2022/04/17 12:31:14;;;;;;;;;19.33;16.00;;;;;;;;5058248;28;45390;-70
2022/04/17 12:33:39;;;;;;;;;12.67;11.67;;;;;;;;5055724;28;45423;-69
2022/04/17 12:36:06;;;;;;;;;13.33;13.00;;;;;;;;5057579;28;45313;-68
2022/04/17 12:38:31;;;;;;;;;14.00;13.00;;;;;;;;5058073;28;45446;-70
2022/04/17 12:40:57;;;;;;;;;17.00;16.00;;;;;;;;5056692;28;45454;-67
2022/04/17 12:43:27;;;;;;;;;19.00;17.00;;;;;;;;5058026;28;45471;-69
2022/04/17 12:45:56;;;;;;;;;13.33;13.00;;;;;;;;5056624;28;45367;-69
2022/04/17 12:48:25;;;;;;;;;14.00;14.00;;;;;;;;5058265;28;45548;-70
2022/04/17 12:50:55;;;;;;;;;18.00;18.00;;;;;;;;5058406;28;45408;-70
2022/04/17 12:53:20;;;;;;;;;28.50;26.50;;;;;;;;5057793;28;46044;-68
2022/04/17 12:55:45;;;;;;;;;23.25;22.75;;;;;;;;5058274;28;45282;-69
2022/04/17 12:58:11;;;;;;;;;17.33;16.33;;;;;;;;5058086;28;45510;-69
2022/04/17 13:00:36;;;;;;;;;17.67;17.00;;;;;;;;5058277;28;45330;-69
2022/04/17 13:03:09;;;;;;;;;15.67;13.00;;;;;;;;5057514;28;46408;-69
2022/04/17 13:05:34;;;;;;;;;15.00;15.00;;;;;;;;5057409;28;45469;-69
2022/04/17 13:08:03;;;;;;;;;15.67;15.67;;;;;;;;5057767;28;45535;-68
2022/04/17 13:10:29;;;;;;;;;17.33;15.67;;;;;;;;5058169;28;45327;-70
2022/04/17 13:12:54;;;;;;;;;19.33;17.67;;;;;;;;5057383;28;46218;-70
2022/04/17 13:15:29;;;;;;;;;17.67;17.33;;;;;;;;5056492;28;45430;-70
2022/04/17 13:17:54;;;;;;;;;18.50;18.00;;;;;;;;5057824;28;45369;-70
2022/04/17 13:20:21;;;;;;;;;17.33;17.00;;;;;;;;5057869;28;45440;-70
2022/04/17 13:22:47;;;;;;;;;16.33;16.33;;;;;;;;5057446;28;45479;-70
2022/04/17 13:25:14;;;;;;;;;20.33;19.00;;;;;;;;5057185;28;45364;-70
2022/04/17 13:27:39;;;;;;;;;19.00;18.00;;;;;;;;5058874;28;45299;-70
2022/04/17 13:30:08;;;;;;;;;19.00;18.33;;;;;;;;5055641;28;45252;-70
2022/04/17 13:32:34;;;;;;;;;18.75;16.75;;;;;;;;5054933;28;45588;-69
2022/04/17 13:34:59;;;;;;;;;19.33;18.33;;;;;;;;5056812;28;45432;-70
2022/04/17 13:40:09;;;;;;;;;70.25;55.75;;;;;;;;5057451;28;45252;-70
2022/04/17 13:42:38;;;;;;;;;18.33;17.33;;;;;;;;5056894;28;45499;-69
2022/04/17 13:45:04;;;;;;;;;25.75;25.00;;;;;;;;5056662;28;45466;-70
2022/04/17 13:47:29;;;;;;;;;20.00;17.00;;;;;;;;5055456;28;45350;-70
2022/04/17 13:49:55;;;;;;;;;20.75;20.50;;;;;;;;5057025;28;45619;-68
2022/04/17 13:52:20;;;;;;;;;22.00;19.33;;;;;;;;5056546;28;45635;-69
2022/04/17 13:54:45;;;;;;;;;21.33;20.00;;;;;;;;5056513;28;45375;-69
2022/04/17 13:57:11;;;;;;;;;20.00;18.67;;;;;;;;5056966;28;45428;-70
2022/04/17 13:59:36;;;;;;;;;22.00;21.67;;;;;;;;5056926;28;45307;-69
2022/04/17 14:02:02;;;;;;;;;25.75;23.75;;;;;;;;5056186;28;45283;-70
2022/04/17 14:04:27;;;;;;;;;22.00;22.00;;;;;;;;5056603;28;45494;-69
2022/04/17 14:06:52;;;;;;;;;21.00;18.33;;;;;;;;5055261;28;45557;-68
2022/04/17 14:09:18;;;;;;;;;17.67;15.67;;;;;;;;5056868;28;45214;-70
2022/04/17 14:11:46;;;;;;;;;20.00;19.67;;;;;;;;5054955;28;46519;-70
2022/04/17 14:14:12;;;;;;;;;22.50;21.50;;;;;;;;5054814;28;45555;-69
2022/04/17 14:16:37;;;;;;;;;21.67;21.67;;;;;;;;5055611;28;45474;-69
2022/04/17 14:19:03;;;;;;;;;22.00;21.25;;;;;;;;5055876;28;45523;-69
2022/04/17 14:21:29;;;;;;;;;23.25;22.25;;;;;;;;5055645;28;45565;-69
2022/04/17 14:23:54;;;;;;;;;25.00;22.00;;;;;;;;5055924;28;45316;-69
2022/04/17 14:26:21;;;;;;;;;25.50;24.50;;;;;;;;5055898;28;45198;-69
2022/04/17 14:28:46;;;;;;;;;25.75;23.00;;;;;;;;5055813;28;45405;-69
2022/04/17 14:31:11;;;;;;;;;22.50;20.75;;;;;;;;5053848;28;45582;-69
2022/04/17 14:33:37;;;;;;;;;23.33;22.33;;;;;;;;5055505;28;45444;-70
2022/04/17 14:36:02;;;;;;;;;24.00;23.00;;;;;;;;5056117;28;45508;-69
2022/04/17 14:38:27;;;;;;;;;20.67;18.00;;;;;;;;5054973;28;45443;-69